< < Back
Terminal Aerodrome Forecast


Current Version              Previous Versions:   1  2  3  4  5  6  7  8  9  

Terminal Aerodrome Forecast

718
FTUS44 KBMX 261127
TAFANB
TAF
KANB 261127Z 2612/2712 25007KT 3SM BR OVC015
      TEMPO 2612/2613 OVC007
     FM261600 32012G18KT P6SM SCT250
     FM270300 04005KT P6SM BKN250=

Latest METAR

179
SAUS70 KWBC 262100 RRD
MTRANB
METAR KANB 262053Z AUTO 27011KT 10SM FEW065 27/14 A2969 RMK AO2 SLP046
T02720144 57006


USA.gov is the U.S. government's official web portal to all federal, state and local government web resources and services.